sensor_id;sensor_type;location;lat;lon;timestamp;P1;durP1;ratioP1;P2;durP2;ratioP2
29634;SDS011;16557;54.762;56.068;2023-07-29T00:01:52;15.95;;;10.68;;
29634;SDS011;16557;54.762;56.068;2023-07-29T00:04:32;16.90;;;11.43;;
29634;SDS011;16557;54.762;56.068;2023-07-29T00:07:12;14.30;;;11.97;;
29634;SDS011;16557;54.762;56.068;2023-07-29T00:09:52;20.15;;;12.33;;
29634;SDS011;16557;54.762;56.068;2023-07-29T00:12:31;14.25;;;10.60;;
29634;SDS011;16557;54.762;56.068;2023-07-29T00:15:11;19.75;;;12.82;;
29634;SDS011;16557;54.762;56.068;2023-07-29T00:17:51;28.55;;;16.55;;
29634;SDS011;16557;54.762;56.068;2023-07-29T00:20:31;20.35;;;13.50;;
29634;SDS011;16557;54.762;56.068;2023-07-29T00:23:11;18.73;;;12.43;;
29634;SDS011;16557;54.762;56.068;2023-07-29T00:25:55;15.85;;;12.40;;
29634;SDS011;16557;54.762;56.068;2023-07-29T00:28:35;13.10;;;11.18;;
29634;SDS011;16557;54.762;56.068;2023-07-29T00:31:15;15.80;;;11.43;;
29634;SDS011;16557;54.762;56.068;2023-07-29T00:33:55;21.00;;;11.95;;
29634;SDS011;16557;54.762;56.068;2023-07-29T00:36:36;16.95;;;11.93;;
29634;SDS011;16557;54.762;56.068;2023-07-29T00:39:16;17.95;;;11.20;;
29634;SDS011;16557;54.762;56.068;2023-07-29T00:41:57;18.92;;;11.10;;
29634;SDS011;16557;54.762;56.068;2023-07-29T00:44:37;17.40;;;11.08;;
29634;SDS011;16557;54.762;56.068;2023-07-29T00:47:17;18.02;;;10.38;;
29634;SDS011;16557;54.762;56.068;2023-07-29T00:50:08;15.40;;;10.80;;
29634;SDS011;16557;54.762;56.068;2023-07-29T00:52:55;16.77;;;10.72;;
29634;SDS011;16557;54.762;56.068;2023-07-29T00:55:35;13.78;;;11.30;;
29634;SDS011;16557;54.762;56.068;2023-07-29T00:58:16;13.75;;;10.72;;
29634;SDS011;16557;54.762;56.068;2023-07-29T01:00:56;16.12;;;11.15;;
29634;SDS011;16557;54.762;56.068;2023-07-29T01:03:42;13.38;;;10.98;;
29634;SDS011;16557;54.762;56.068;2023-07-29T01:06:35;18.32;;;11.05;;
29634;SDS011;16557;54.762;56.068;2023-07-29T01:09:41;16.15;;;11.10;;
29634;SDS011;16557;54.762;56.068;2023-07-29T01:12:37;14.15;;;10.08;;
29634;SDS011;16557;54.762;56.068;2023-07-29T01:18:21;15.10;;;10.50;;
29634;SDS011;16557;54.762;56.068;2023-07-29T01:21:04;16.52;;;10.35;;
29634;SDS011;16557;54.762;56.068;2023-07-29T01:23:47;16.97;;;10.63;;
29634;SDS011;16557;54.762;56.068;2023-07-29T01:26:26;15.63;;;9.98;;
29634;SDS011;16557;54.762;56.068;2023-07-29T01:29:07;11.85;;;10.38;;
29634;SDS011;16557;54.762;56.068;2023-07-29T01:31:47;10.75;;;9.45;;
29634;SDS011;16557;54.762;56.068;2023-07-29T01:34:23;12.00;;;9.25;;
29634;SDS011;16557;54.762;56.068;2023-07-29T01:37:03;19.85;;;9.83;;
29634;SDS011;16557;54.762;56.068;2023-07-29T01:39:49;13.90;;;9.33;;
29634;SDS011;16557;54.762;56.068;2023-07-29T01:42:29;18.40;;;9.70;;
29634;SDS011;16557;54.762;56.068;2023-07-29T01:44:59;13.68;;;10.25;;
29634;SDS011;16557;54.762;56.068;2023-07-29T01:47:39;12.98;;;9.55;;
29634;SDS011;16557;54.762;56.068;2023-07-29T01:50:19;13.20;;;9.10;;
29634;SDS011;16557;54.762;56.068;2023-07-29T01:52:59;14.95;;;9.73;;
29634;SDS011;16557;54.762;56.068;2023-07-29T01:55:39;18.67;;;9.98;;
29634;SDS011;16557;54.762;56.068;2023-07-29T01:58:19;10.13;;;9.05;;
29634;SDS011;16557;54.762;56.068;2023-07-29T02:00:59;13.55;;;9.53;;
29634;SDS011;16557;54.762;56.068;2023-07-29T02:03:43;12.55;;;8.35;;
29634;SDS011;16557;54.762;56.068;2023-07-29T02:06:22;14.70;;;7.65;;
29634;SDS011;16557;54.762;56.068;2023-07-29T02:09:02;10.25;;;7.37;;
29634;SDS011;16557;54.762;56.068;2023-07-29T02:11:32;9.38;;;7.42;;
29634;SDS011;16557;54.762;56.068;2023-07-29T02:14:12;9.75;;;7.45;;
29634;SDS011;16557;54.762;56.068;2023-07-29T02:16:56;8.65;;;7.67;;
29634;SDS011;16557;54.762;56.068;2023-07-29T02:19:27;10.32;;;7.22;;
29634;SDS011;16557;54.762;56.068;2023-07-29T02:22:07;11.90;;;7.15;;
29634;SDS011;16557;54.762;56.068;2023-07-29T02:24:47;10.55;;;6.87;;
29634;SDS011;16557;54.762;56.068;2023-07-29T02:27:32;12.15;;;8.63;;
29634;SDS011;16557;54.762;56.068;2023-07-29T02:30:18;12.60;;;8.20;;
29634;SDS011;16557;54.762;56.068;2023-07-29T02:32:59;10.48;;;7.80;;
29634;SDS011;16557;54.762;56.068;2023-07-29T02:35:45;15.93;;;9.08;;
29634;SDS011;16557;54.762;56.068;2023-07-29T02:38:25;13.20;;;8.08;;
29634;SDS011;16557;54.762;56.068;2023-07-29T02:41:09;9.60;;;7.83;;
29634;SDS011;16557;54.762;56.068;2023-07-29T02:43:50;9.78;;;7.75;;
29634;SDS011;16557;54.762;56.068;2023-07-29T02:46:20;12.30;;;6.62;;
29634;SDS011;16557;54.762;56.068;2023-07-29T02:49:01;11.35;;;7.42;;
29634;SDS011;16557;54.762;56.068;2023-07-29T02:51:41;9.30;;;7.25;;
29634;SDS011;16557;54.762;56.068;2023-07-29T02:54:25;11.80;;;7.58;;
29634;SDS011;16557;54.762;56.068;2023-07-29T02:57:05;13.70;;;7.17;;
29634;SDS011;16557;54.762;56.068;2023-07-29T02:59:45;11.65;;;7.50;;
29634;SDS011;16557;54.762;56.068;2023-07-29T03:02:25;17.40;;;7.87;;
29634;SDS011;16557;54.762;56.068;2023-07-29T03:05:05;35.75;;;9.45;;
29634;SDS011;16557;54.762;56.068;2023-07-29T03:07:51;9.15;;;6.97;;
29634;SDS011;16557;54.762;56.068;2023-07-29T03:10:31;8.58;;;6.92;;
29634;SDS011;16557;54.762;56.068;2023-07-29T03:13:12;12.70;;;7.05;;
29634;SDS011;16557;54.762;56.068;2023-07-29T03:16:08;9.58;;;7.47;;
29634;SDS011;16557;54.762;56.068;2023-07-29T03:18:38;14.83;;;7.75;;
29634;SDS011;16557;54.762;56.068;2023-07-29T03:21:18;11.95;;;7.50;;
29634;SDS011;16557;54.762;56.068;2023-07-29T03:23:58;9.85;;;6.65;;
29634;SDS011;16557;54.762;56.068;2023-07-29T03:26:38;10.53;;;7.05;;
29634;SDS011;16557;54.762;56.068;2023-07-29T03:29:18;11.20;;;6.33;;
29634;SDS011;16557;54.762;56.068;2023-07-29T03:31:58;7.58;;;5.47;;
29634;SDS011;16557;54.762;56.068;2023-07-29T03:34:38;8.18;;;5.00;;
29634;SDS011;16557;54.762;56.068;2023-07-29T03:37:18;9.70;;;5.17;;
29634;SDS011;16557;54.762;56.068;2023-07-29T03:39:58;11.70;;;6.20;;
29634;SDS011;16557;54.762;56.068;2023-07-29T03:42:37;10.63;;;5.65;;
29634;SDS011;16557;54.762;56.068;2023-07-29T03:45:17;12.45;;;5.95;;
29634;SDS011;16557;54.762;56.068;2023-07-29T03:47:47;13.32;;;5.45;;
29634;SDS011;16557;54.762;56.068;2023-07-29T03:50:27;8.15;;;4.70;;
29634;SDS011;16557;54.762;56.068;2023-07-29T03:53:13;10.65;;;4.75;;
29634;SDS011;16557;54.762;56.068;2023-07-29T03:55:44;6.20;;;4.92;;
29634;SDS011;16557;54.762;56.068;2023-07-29T03:58:25;13.28;;;5.22;;
29634;SDS011;16557;54.762;56.068;2023-07-29T04:01:05;12.75;;;5.05;;
29634;SDS011;16557;54.762;56.068;2023-07-29T04:03:50;11.22;;;5.50;;
29634;SDS011;16557;54.762;56.068;2023-07-29T04:06:36;11.22;;;5.40;;
29634;SDS011;16557;54.762;56.068;2023-07-29T04:09:16;12.82;;;6.15;;
29634;SDS011;16557;54.762;56.068;2023-07-29T04:11:56;12.30;;;6.37;;
29634;SDS011;16557;54.762;56.068;2023-07-29T04:14:46;16.32;;;6.15;;
29634;SDS011;16557;54.762;56.068;2023-07-29T04:17:26;15.28;;;9.85;;
29634;SDS011;16557;54.762;56.068;2023-07-29T04:20:06;32.73;;;12.95;;
29634;SDS011;16557;54.762;56.068;2023-07-29T04:22:46;12.75;;;8.10;;
29634;SDS011;16557;54.762;56.068;2023-07-29T04:25:27;16.65;;;8.35;;
29634;SDS011;16557;54.762;56.068;2023-07-29T04:28:07;8.88;;;7.45;;
29634;SDS011;16557;54.762;56.068;2023-07-29T04:30:47;15.13;;;7.97;;
29634;SDS011;16557;54.762;56.068;2023-07-29T04:33:31;15.43;;;7.87;;
29634;SDS011;16557;54.762;56.068;2023-07-29T04:36:10;12.55;;;6.62;;
29634;SDS011;16557;54.762;56.068;2023-07-29T04:38:56;8.65;;;7.20;;
29634;SDS011;16557;54.762;56.068;2023-07-29T04:41:41;15.90;;;6.70;;
29634;SDS011;16557;54.762;56.068;2023-07-29T04:44:20;21.87;;;6.75;;
29634;SDS011;16557;54.762;56.068;2023-07-29T04:47:00;14.53;;;6.37;;
29634;SDS011;16557;54.762;56.068;2023-07-29T04:49:40;11.15;;;6.53;;
29634;SDS011;16557;54.762;56.068;2023-07-29T04:52:20;16.00;;;6.80;;
29634;SDS011;16557;54.762;56.068;2023-07-29T04:55:00;13.00;;;6.03;;
29634;SDS011;16557;54.762;56.068;2023-07-29T04:57:40;10.28;;;5.00;;
29634;SDS011;16557;54.762;56.068;2023-07-29T05:00:20;17.60;;;5.25;;
29634;SDS011;16557;54.762;56.068;2023-07-29T05:03:04;9.60;;;5.40;;
29634;SDS011;16557;54.762;56.068;2023-07-29T05:05:44;7.72;;;5.37;;
29634;SDS011;16557;54.762;56.068;2023-07-29T05:08:27;13.80;;;5.22;;
29634;SDS011;16557;54.762;56.068;2023-07-29T05:11:07;11.53;;;5.60;;
29634;SDS011;16557;54.762;56.068;2023-07-29T05:13:47;12.68;;;6.25;;
29634;SDS011;16557;54.762;56.068;2023-07-29T05:16:17;10.50;;;7.22;;
29634;SDS011;16557;54.762;56.068;2023-07-29T05:18:57;12.03;;;6.00;;
29634;SDS011;16557;54.762;56.068;2023-07-29T05:21:26;14.00;;;5.67;;
29634;SDS011;16557;54.762;56.068;2023-07-29T05:24:06;13.53;;;6.12;;
29634;SDS011;16557;54.762;56.068;2023-07-29T05:26:52;13.70;;;6.00;;
29634;SDS011;16557;54.762;56.068;2023-07-29T05:29:32;13.08;;;6.47;;
29634;SDS011;16557;54.762;56.068;2023-07-29T05:32:16;13.03;;;5.90;;
29634;SDS011;16557;54.762;56.068;2023-07-29T05:34:46;15.05;;;5.83;;
29634;SDS011;16557;54.762;56.068;2023-07-29T05:37:25;12.43;;;5.90;;
29634;SDS011;16557;54.762;56.068;2023-07-29T05:40:05;8.35;;;5.55;;
29634;SDS011;16557;54.762;56.068;2023-07-29T05:42:46;6.92;;;5.75;;
29634;SDS011;16557;54.762;56.068;2023-07-29T05:45:26;12.25;;;5.90;;
29634;SDS011;16557;54.762;56.068;2023-07-29T05:48:13;9.03;;;5.30;;
29634;SDS011;16557;54.762;56.068;2023-07-29T05:50:53;25.12;;;7.00;;
29634;SDS011;16557;54.762;56.068;2023-07-29T05:53:33;10.70;;;6.10;;
29634;SDS011;16557;54.762;56.068;2023-07-29T05:56:13;11.00;;;6.40;;
29634;SDS011;16557;54.762;56.068;2023-07-29T05:58:53;11.43;;;5.70;;
29634;SDS011;16557;54.762;56.068;2023-07-29T06:01:32;11.80;;;6.15;;
29634;SDS011;16557;54.762;56.068;2023-07-29T06:04:18;14.68;;;6.70;;
29634;SDS011;16557;54.762;56.068;2023-07-29T06:06:58;12.23;;;6.45;;
29634;SDS011;16557;54.762;56.068;2023-07-29T06:09:39;12.37;;;6.47;;
29634;SDS011;16557;54.762;56.068;2023-07-29T06:12:22;13.22;;;6.40;;
29634;SDS011;16557;54.762;56.068;2023-07-29T06:14:52;13.30;;;6.50;;
29634;SDS011;16557;54.762;56.068;2023-07-29T06:17:38;13.43;;;7.15;;
29634;SDS011;16557;54.762;56.068;2023-07-29T06:20:19;8.85;;;7.05;;
29634;SDS011;16557;54.762;56.068;2023-07-29T06:22:59;14.15;;;6.92;;
29634;SDS011;16557;54.762;56.068;2023-07-29T06:25:45;16.52;;;7.35;;
29634;SDS011;16557;54.762;56.068;2023-07-29T06:28:31;14.25;;;8.63;;
29634;SDS011;16557;54.762;56.068;2023-07-29T06:31:11;19.95;;;8.08;;
29634;SDS011;16557;54.762;56.068;2023-07-29T06:33:51;12.95;;;6.90;;
29634;SDS011;16557;54.762;56.068;2023-07-29T06:36:32;8.75;;;5.83;;
29634;SDS011;16557;54.762;56.068;2023-07-29T06:39:18;14.23;;;8.30;;
29634;SDS011;16557;54.762;56.068;2023-07-29T06:41:58;11.05;;;8.38;;
29634;SDS011;16557;54.762;56.068;2023-07-29T06:44:44;11.80;;;7.45;;
29634;SDS011;16557;54.762;56.068;2023-07-29T06:47:23;7.20;;;5.28;;
29634;SDS011;16557;54.762;56.068;2023-07-29T06:50:03;8.35;;;5.53;;
29634;SDS011;16557;54.762;56.068;2023-07-29T06:52:44;9.95;;;6.25;;
29634;SDS011;16557;54.762;56.068;2023-07-29T06:55:24;9.43;;;5.55;;
29634;SDS011;16557;54.762;56.068;2023-07-29T06:58:04;9.33;;;4.60;;
29634;SDS011;16557;54.762;56.068;2023-07-29T07:00:48;7.10;;;4.80;;
29634;SDS011;16557;54.762;56.068;2023-07-29T07:03:28;11.38;;;4.80;;
29634;SDS011;16557;54.762;56.068;2023-07-29T07:06:07;7.03;;;5.22;;
29634;SDS011;16557;54.762;56.068;2023-07-29T07:08:53;10.82;;;6.37;;
29634;SDS011;16557;54.762;56.068;2023-07-29T07:11:35;5.90;;;4.80;;
29634;SDS011;16557;54.762;56.068;2023-07-29T07:14:04;17.10;;;5.80;;
29634;SDS011;16557;54.762;56.068;2023-07-29T07:16:50;11.40;;;5.45;;
29634;SDS011;16557;54.762;56.068;2023-07-29T07:19:36;10.00;;;6.15;;
29634;SDS011;16557;54.762;56.068;2023-07-29T07:22:05;7.53;;;4.60;;
29634;SDS011;16557;54.762;56.068;2023-07-29T07:24:45;5.92;;;4.25;;
29634;SDS011;16557;54.762;56.068;2023-07-29T07:27:26;9.13;;;4.47;;
29634;SDS011;16557;54.762;56.068;2023-07-29T07:30:12;7.40;;;5.17;;
29634;SDS011;16557;54.762;56.068;2023-07-29T07:32:52;25.00;;;21.25;;
29634;SDS011;16557;54.762;56.068;2023-07-29T07:35:32;4.97;;;4.45;;
29634;SDS011;16557;54.762;56.068;2023-07-29T07:38:15;5.97;;;4.12;;
29634;SDS011;16557;54.762;56.068;2023-07-29T07:43:35;10.58;;;3.85;;
29634;SDS011;16557;54.762;56.068;2023-07-29T07:46:21;13.50;;;10.40;;
29634;SDS011;16557;54.762;56.068;2023-07-29T07:49:01;5.40;;;4.50;;
29634;SDS011;16557;54.762;56.068;2023-07-29T07:51:31;6.75;;;4.37;;
29634;SDS011;16557;54.762;56.068;2023-07-29T07:54:11;6.85;;;4.30;;
29634;SDS011;16557;54.762;56.068;2023-07-29T07:56:50;8.53;;;3.83;;
29634;SDS011;16557;54.762;56.068;2023-07-29T07:59:33;10.10;;;4.35;;
29634;SDS011;16557;54.762;56.068;2023-07-29T08:02:13;6.37;;;4.28;;
29634;SDS011;16557;54.762;56.068;2023-07-29T08:04:53;6.37;;;4.50;;
29634;SDS011;16557;54.762;56.068;2023-07-29T08:07:33;6.75;;;4.25;;
29634;SDS011;16557;54.762;56.068;2023-07-29T08:10:13;6.92;;;4.47;;
29634;SDS011;16557;54.762;56.068;2023-07-29T08:12:52;7.37;;;3.83;;
29634;SDS011;16557;54.762;56.068;2023-07-29T08:15:32;8.15;;;3.77;;
29634;SDS011;16557;54.762;56.068;2023-07-29T08:18:12;11.10;;;4.22;;
29634;SDS011;16557;54.762;56.068;2023-07-29T08:20:57;7.30;;;3.95;;
29634;SDS011;16557;54.762;56.068;2023-07-29T08:23:40;8.20;;;4.40;;
29634;SDS011;16557;54.762;56.068;2023-07-29T08:26:09;4.40;;;3.70;;
29634;SDS011;16557;54.762;56.068;2023-07-29T08:28:55;7.10;;;5.20;;
29634;SDS011;16557;54.762;56.068;2023-07-29T08:31:25;6.28;;;3.98;;
29634;SDS011;16557;54.762;56.068;2023-07-29T08:34:09;6.83;;;4.92;;
29634;SDS011;16557;54.762;56.068;2023-07-29T08:36:49;10.72;;;4.83;;
29634;SDS011;16557;54.762;56.068;2023-07-29T08:39:36;6.90;;;4.10;;
29634;SDS011;16557;54.762;56.068;2023-07-29T08:42:07;6.03;;;3.50;;
29634;SDS011;16557;54.762;56.068;2023-07-29T08:44:56;5.40;;;3.35;;
29634;SDS011;16557;54.762;56.068;2023-07-29T08:47:37;6.72;;;3.75;;
29634;SDS011;16557;54.762;56.068;2023-07-29T08:50:23;7.58;;;3.80;;
29634;SDS011;16557;54.762;56.068;2023-07-29T08:53:04;8.73;;;3.87;;
29634;SDS011;16557;54.762;56.068;2023-07-29T08:55:44;11.05;;;4.15;;
29634;SDS011;16557;54.762;56.068;2023-07-29T08:58:24;4.78;;;3.55;;
29634;SDS011;16557;54.762;56.068;2023-07-29T09:01:10;9.80;;;4.37;;
29634;SDS011;16557;54.762;56.068;2023-07-29T09:03:50;6.45;;;3.00;;
29634;SDS011;16557;54.762;56.068;2023-07-29T09:06:30;6.42;;;3.40;;
29634;SDS011;16557;54.762;56.068;2023-07-29T09:09:10;7.20;;;3.77;;
29634;SDS011;16557;54.762;56.068;2023-07-29T09:11:50;7.55;;;3.80;;
29634;SDS011;16557;54.762;56.068;2023-07-29T09:14:30;7.30;;;3.33;;
29634;SDS011;16557;54.762;56.068;2023-07-29T09:17:10;7.40;;;4.12;;
29634;SDS011;16557;54.762;56.068;2023-07-29T09:19:56;7.37;;;4.00;;
29634;SDS011;16557;54.762;56.068;2023-07-29T09:22:26;6.55;;;3.67;;
29634;SDS011;16557;54.762;56.068;2023-07-29T09:25:12;4.80;;;3.37;;
29634;SDS011;16557;54.762;56.068;2023-07-29T09:27:43;6.13;;;3.80;;
29634;SDS011;16557;54.762;56.068;2023-07-29T09:30:23;6.50;;;3.92;;
29634;SDS011;16557;54.762;56.068;2023-07-29T09:32:54;8.05;;;3.75;;
29634;SDS011;16557;54.762;56.068;2023-07-29T09:35:35;8.38;;;4.50;;
29634;SDS011;16557;54.762;56.068;2023-07-29T09:38:05;12.80;;;4.42;;
29634;SDS011;16557;54.762;56.068;2023-07-29T09:40:45;5.37;;;4.00;;
29634;SDS011;16557;54.762;56.068;2023-07-29T09:43:15;5.70;;;3.40;;
29634;SDS011;16557;54.762;56.068;2023-07-29T09:46:02;8.00;;;3.75;;
29634;SDS011;16557;54.762;56.068;2023-07-29T09:48:44;5.10;;;3.70;;
29634;SDS011;16557;54.762;56.068;2023-07-29T09:51:26;11.00;;;4.22;;
29634;SDS011;16557;54.762;56.068;2023-07-29T09:54:06;13.20;;;4.22;;
29634;SDS011;16557;54.762;56.068;2023-07-29T09:56:47;10.50;;;4.83;;
29634;SDS011;16557;54.762;56.068;2023-07-29T09:59:27;7.83;;;4.00;;
29634;SDS011;16557;54.762;56.068;2023-07-29T10:02:15;4.67;;;3.80;;
29634;SDS011;16557;54.762;56.068;2023-07-29T10:04:45;5.75;;;3.33;;
29634;SDS011;16557;54.762;56.068;2023-07-29T10:07:25;5.40;;;3.65;;
29634;SDS011;16557;54.762;56.068;2023-07-29T10:10:06;4.15;;;3.75;;
29634;SDS011;16557;54.762;56.068;2023-07-29T10:12:36;5.62;;;3.90;;
29634;SDS011;16557;54.762;56.068;2023-07-29T10:15:19;4.37;;;3.70;;
29634;SDS011;16557;54.762;56.068;2023-07-29T10:18:00;6.92;;;3.77;;
29634;SDS011;16557;54.762;56.068;2023-07-29T10:20:41;8.90;;;4.47;;
29634;SDS011;16557;54.762;56.068;2023-07-29T10:23:23;9.00;;;4.97;;
29634;SDS011;16557;54.762;56.068;2023-07-29T10:26:05;6.67;;;3.90;;
29634;SDS011;16557;54.762;56.068;2023-07-29T10:28:47;5.15;;;4.35;;
29634;SDS011;16557;54.762;56.068;2023-07-29T10:31:26;9.13;;;4.95;;
29634;SDS011;16557;54.762;56.068;2023-07-29T10:34:08;6.47;;;3.42;;
29634;SDS011;16557;54.762;56.068;2023-07-29T10:36:49;4.75;;;4.17;;
29634;SDS011;16557;54.762;56.068;2023-07-29T10:39:37;5.25;;;3.85;;
29634;SDS011;16557;54.762;56.068;2023-07-29T10:42:20;9.38;;;3.95;;
29634;SDS011;16557;54.762;56.068;2023-07-29T10:45:00;8.50;;;3.80;;
29634;SDS011;16557;54.762;56.068;2023-07-29T10:47:41;7.12;;;3.75;;
29634;SDS011;16557;54.762;56.068;2023-07-29T10:50:21;8.68;;;4.08;;
29634;SDS011;16557;54.762;56.068;2023-07-29T10:53:01;5.78;;;3.70;;
29634;SDS011;16557;54.762;56.068;2023-07-29T10:55:43;6.35;;;3.72;;
29634;SDS011;16557;54.762;56.068;2023-07-29T10:58:23;4.22;;;3.45;;
29634;SDS011;16557;54.762;56.068;2023-07-29T11:01:03;7.72;;;4.40;;
29634;SDS011;16557;54.762;56.068;2023-07-29T11:04:01;6.78;;;3.52;;
29634;SDS011;16557;54.762;56.068;2023-07-29T11:09:52;4.90;;;3.70;;
29634;SDS011;16557;54.762;56.068;2023-07-29T11:12:41;5.05;;;4.05;;
29634;SDS011;16557;54.762;56.068;2023-07-29T11:15:25;4.53;;;3.60;;
29634;SDS011;16557;54.762;56.068;2023-07-29T11:18:06;6.25;;;3.80;;
29634;SDS011;16557;54.762;56.068;2023-07-29T11:20:50;7.47;;;3.98;;
29634;SDS011;16557;54.762;56.068;2023-07-29T11:23:39;9.78;;;4.08;;
29634;SDS011;16557;54.762;56.068;2023-07-29T11:26:19;7.33;;;3.90;;
29634;SDS011;16557;54.762;56.068;2023-07-29T11:29:05;6.20;;;4.12;;
29634;SDS011;16557;54.762;56.068;2023-07-29T11:31:40;10.15;;;5.35;;
29634;SDS011;16557;54.762;56.068;2023-07-29T11:34:32;6.87;;;4.80;;
29634;SDS011;16557;54.762;56.068;2023-07-29T11:37:12;9.55;;;4.83;;
29634;SDS011;16557;54.762;56.068;2023-07-29T11:39:58;5.10;;;4.12;;
29634;SDS011;16557;54.762;56.068;2023-07-29T11:42:30;5.70;;;4.00;;
29634;SDS011;16557;54.762;56.068;2023-07-29T11:45:11;8.15;;;4.55;;
29634;SDS011;16557;54.762;56.068;2023-07-29T11:47:58;6.62;;;4.33;;
29634;SDS011;16557;54.762;56.068;2023-07-29T11:50:29;7.30;;;3.87;;
29634;SDS011;16557;54.762;56.068;2023-07-29T11:53:09;9.28;;;3.72;;
29634;SDS011;16557;54.762;56.068;2023-07-29T11:55:55;6.20;;;4.00;;
29634;SDS011;16557;54.762;56.068;2023-07-29T11:58:25;5.45;;;3.90;;
29634;SDS011;16557;54.762;56.068;2023-07-29T12:01:11;7.78;;;4.20;;
29634;SDS011;16557;54.762;56.068;2023-07-29T12:03:52;8.43;;;3.72;;
29634;SDS011;16557;54.762;56.068;2023-07-29T12:06:32;8.70;;;3.92;;
29634;SDS011;16557;54.762;56.068;2023-07-29T12:09:12;6.50;;;3.65;;
29634;SDS011;16557;54.762;56.068;2023-07-29T12:11:58;12.93;;;6.83;;
29634;SDS011;16557;54.762;56.068;2023-07-29T12:14:30;10.63;;;4.12;;
29634;SDS011;16557;54.762;56.068;2023-07-29T12:17:16;10.78;;;4.85;;
29634;SDS011;16557;54.762;56.068;2023-07-29T12:19:57;9.33;;;4.50;;
29634;SDS011;16557;54.762;56.068;2023-07-29T12:22:38;12.00;;;4.00;;
29634;SDS011;16557;54.762;56.068;2023-07-29T12:25:19;10.15;;;3.92;;
29634;SDS011;16557;54.762;56.068;2023-07-29T12:28:04;9.33;;;4.80;;
29634;SDS011;16557;54.762;56.068;2023-07-29T12:30:53;4.62;;;3.92;;
29634;SDS011;16557;54.762;56.068;2023-07-29T12:33:30;9.93;;;4.75;;
29634;SDS011;16557;54.762;56.068;2023-07-29T12:36:13;7.80;;;4.42;;
29634;SDS011;16557;54.762;56.068;2023-07-29T12:38:53;7.83;;;3.92;;
29634;SDS011;16557;54.762;56.068;2023-07-29T12:41:34;4.22;;;3.72;;
29634;SDS011;16557;54.762;56.068;2023-07-29T12:44:04;5.47;;;3.77;;
29634;SDS011;16557;54.762;56.068;2023-07-29T12:46:44;7.58;;;4.28;;
29634;SDS011;16557;54.762;56.068;2023-07-29T12:49:24;6.50;;;4.20;;
29634;SDS011;16557;54.762;56.068;2023-07-29T12:51:53;6.95;;;4.10;;
29634;SDS011;16557;54.762;56.068;2023-07-29T12:54:33;5.75;;;3.67;;
29634;SDS011;16557;54.762;56.068;2023-07-29T12:57:23;11.55;;;4.53;;
29634;SDS011;16557;54.762;56.068;2023-07-29T13:00:03;7.28;;;4.22;;
29634;SDS011;16557;54.762;56.068;2023-07-29T13:02:44;10.15;;;4.17;;
29634;SDS011;16557;54.762;56.068;2023-07-29T13:05:23;7.17;;;4.42;;
29634;SDS011;16557;54.762;56.068;2023-07-29T13:08:09;13.25;;;6.05;;
29634;SDS011;16557;54.762;56.068;2023-07-29T13:10:39;8.00;;;4.22;;
29634;SDS011;16557;54.762;56.068;2023-07-29T13:13:25;8.20;;;5.17;;
29634;SDS011;16557;54.762;56.068;2023-07-29T13:16:11;10.32;;;5.00;;
29634;SDS011;16557;54.762;56.068;2023-07-29T13:18:55;5.72;;;3.95;;
29634;SDS011;16557;54.762;56.068;2023-07-29T13:21:25;7.62;;;3.92;;
29634;SDS011;16557;54.762;56.068;2023-07-29T13:24:10;6.33;;;4.25;;
29634;SDS011;16557;54.762;56.068;2023-07-29T13:26:50;5.17;;;3.60;;
29634;SDS011;16557;54.762;56.068;2023-07-29T13:29:30;7.62;;;4.03;;
29634;SDS011;16557;54.762;56.068;2023-07-29T13:32:16;6.65;;;4.03;;
29634;SDS011;16557;54.762;56.068;2023-07-29T13:34:45;8.38;;;4.15;;
29634;SDS011;16557;54.762;56.068;2023-07-29T13:37:31;10.53;;;4.37;;
29634;SDS011;16557;54.762;56.068;2023-07-29T13:40:11;7.60;;;3.90;;
29634;SDS011;16557;54.762;56.068;2023-07-29T13:42:58;4.67;;;3.47;;
29634;SDS011;16557;54.762;56.068;2023-07-29T13:45:38;4.65;;;3.83;;
29634;SDS011;16557;54.762;56.068;2023-07-29T13:48:18;5.03;;;4.33;;
29634;SDS011;16557;54.762;56.068;2023-07-29T13:51:04;8.73;;;4.78;;
29634;SDS011;16557;54.762;56.068;2023-07-29T13:53:43;4.75;;;4.20;;
29634;SDS011;16557;54.762;56.068;2023-07-29T13:56:23;13.13;;;4.87;;
29634;SDS011;16557;54.762;56.068;2023-07-29T13:59:03;11.93;;;9.68;;
29634;SDS011;16557;54.762;56.068;2023-07-29T14:01:49;7.87;;;4.60;;
29634;SDS011;16557;54.762;56.068;2023-07-29T14:04:39;7.80;;;4.47;;
29634;SDS011;16557;54.762;56.068;2023-07-29T14:07:19;4.55;;;3.87;;
29634;SDS011;16557;54.762;56.068;2023-07-29T14:10:03;6.35;;;4.12;;
29634;SDS011;16557;54.762;56.068;2023-07-29T14:12:43;17.52;;;6.78;;
29634;SDS011;16557;54.762;56.068;2023-07-29T14:15:28;11.00;;;5.15;;
29634;SDS011;16557;54.762;56.068;2023-07-29T14:18:16;8.10;;;4.62;;
29634;SDS011;16557;54.762;56.068;2023-07-29T14:20:56;9.63;;;4.72;;
29634;SDS011;16557;54.762;56.068;2023-07-29T14:23:36;8.28;;;4.22;;
29634;SDS011;16557;54.762;56.068;2023-07-29T14:26:35;5.53;;;4.28;;
29634;SDS011;16557;54.762;56.068;2023-07-29T14:29:05;13.78;;;5.35;;
29634;SDS011;16557;54.762;56.068;2023-07-29T14:31:45;7.70;;;5.65;;
29634;SDS011;16557;54.762;56.068;2023-07-29T14:34:25;14.10;;;7.30;;
29634;SDS011;16557;54.762;56.068;2023-07-29T14:37:09;8.25;;;5.17;;
29634;SDS011;16557;54.762;56.068;2023-07-29T14:39:54;14.38;;;6.40;;
29634;SDS011;16557;54.762;56.068;2023-07-29T14:42:41;8.00;;;6.60;;
29634;SDS011;16557;54.762;56.068;2023-07-29T14:45:21;10.55;;;5.33;;
29634;SDS011;16557;54.762;56.068;2023-07-29T14:47:50;8.10;;;6.67;;
29634;SDS011;16557;54.762;56.068;2023-07-29T14:50:30;7.45;;;4.60;;
29634;SDS011;16557;54.762;56.068;2023-07-29T14:53:14;10.00;;;5.03;;
29634;SDS011;16557;54.762;56.068;2023-07-29T14:55:43;7.67;;;5.05;;
29634;SDS011;16557;54.762;56.068;2023-07-29T14:58:29;6.62;;;5.33;;
29634;SDS011;16557;54.762;56.068;2023-07-29T15:01:09;7.70;;;4.42;;
29634;SDS011;16557;54.762;56.068;2023-07-29T15:03:49;11.65;;;4.87;;
29634;SDS011;16557;54.762;56.068;2023-07-29T15:06:29;6.72;;;4.90;;
29634;SDS011;16557;54.762;56.068;2023-07-29T15:09:15;9.55;;;6.35;;
29634;SDS011;16557;54.762;56.068;2023-07-29T15:11:45;9.20;;;5.55;;
29634;SDS011;16557;54.762;56.068;2023-07-29T15:14:24;7.10;;;5.25;;
29634;SDS011;16557;54.762;56.068;2023-07-29T15:17:10;9.05;;;5.28;;
29634;SDS011;16557;54.762;56.068;2023-07-29T15:19:50;13.43;;;8.90;;
29634;SDS011;16557;54.762;56.068;2023-07-29T15:22:36;7.72;;;6.10;;
29634;SDS011;16557;54.762;56.068;2023-07-29T15:25:07;10.70;;;6.75;;
29634;SDS011;16557;54.762;56.068;2023-07-29T15:27:53;8.93;;;6.12;;
29634;SDS011;16557;54.762;56.068;2023-07-29T15:30:39;10.10;;;5.95;;
29634;SDS011;16557;54.762;56.068;2023-07-29T15:33:19;9.38;;;5.50;;
29634;SDS011;16557;54.762;56.068;2023-07-29T15:35:59;14.03;;;8.88;;
29634;SDS011;16557;54.762;56.068;2023-07-29T15:38:43;9.65;;;6.03;;
29634;SDS011;16557;54.762;56.068;2023-07-29T15:41:13;20.85;;;18.73;;
29634;SDS011;16557;54.762;56.068;2023-07-29T15:43:52;11.55;;;8.68;;
29634;SDS011;16557;54.762;56.068;2023-07-29T15:46:39;18.15;;;5.85;;
29634;SDS011;16557;54.762;56.068;2023-07-29T15:49:25;15.53;;;7.97;;
29634;SDS011;16557;54.762;56.068;2023-07-29T15:52:11;23.12;;;12.03;;
29634;SDS011;16557;54.762;56.068;2023-07-29T15:54:56;23.38;;;10.15;;